Mexico V — XCKR — position and weather

sailwx.info

Track history (hours):
 
Tides and Currents Weather Stations Pressure Air Temp Water Temp Dewpoint Dewpoint Depression Visibility Wind Speed Wind Dir Waves Ship Positions

Mexico V

Last reported at 2018-May-24 21:16 UTC. Time now 2018-May-25 14:44 UTC.
Position N 29°52' W 092°08'.

Length 40 m; draft 1.5 m.

Type: Ship. MMSI: 345110005.

Date/timePositionNaut miles runAvg speedWind from/ knotsBaromVisibWave heightAir tempDewpointWater temp
2018-May-24 21:16N 29°52' W 092°08'1 5.5
2018-May-24 21:00N 29°50' W 092°08'3 5.2
2018-May-24 20:30N 29°48' W 092°08'3 5.7
2018-May-24 20:00N 29°48' W 092°05'1 1.1
2018-May-24 19:31N 29°48' W 092°04'5 4.3
2018-May-24 18:25N 29°50' W 091°59'3 6.8
2018-May-24 18:01N 29°49' W 092°02'1 2.1
2018-May-24 17:30N 29°49' W 092°04'0 1.0
2018-May-24 17:00N 29°48' W 092°04'4 7.8
2018-May-24 16:30N 29°48' W 092°08'3 5.2
2018-May-24 16:00N 29°50' W 092°08'  
Track history (hours):
 
Tides and Currents Weather Stations Pressure Air Temp Water Temp Dewpoint Dewpoint Depression Visibility Wind Speed Wind Dir Waves Ship Positions

Mexico V

Last reported at 2018-May-24 21:16 UTC. Time now 2018-May-25 14:44 UTC.
Position N 29°52' W 092°08'.

Length 40 m; draft 1.5 m.

Type: Ship. MMSI: 345110005.

Date/timePositionNaut miles runAvg speedWind from/ knotsBaromVisibWave heightAir tempDewpointWater temp
2018-May-24 21:16N 29°52' W 092°08'1 5.5
2018-May-24 21:00N 29°50' W 092°08'3 5.2
2018-May-24 20:30N 29°48' W 092°08'3 5.7
2018-May-24 20:00N 29°48' W 092°05'1 1.1
2018-May-24 19:31N 29°48' W 092°04'5 4.3
2018-May-24 18:25N 29°50' W 091°59'3 6.8
2018-May-24 18:01N 29°49' W 092°02'1 2.1
2018-May-24 17:30N 29°49' W 092°04'0 1.0
2018-May-24 17:00N 29°48' W 092°04'4 7.8
2018-May-24 16:30N 29°48' W 092°08'3 5.2
2018-May-24 16:00N 29°50' W 092°08'  

Dump ship's entire track history